createdAt,value
2022-10-25T00:01:53.791Z,47.08
2022-10-25T00:04:24.189Z,47.03
2022-10-25T00:06:53.033Z,46.71
2022-10-25T00:09:21.774Z,46.72
2022-10-25T00:11:50.775Z,46.42
2022-10-25T00:14:20.614Z,46.53
2022-10-25T00:16:49.188Z,46.41
2022-10-25T00:19:17.632Z,46.21
2022-10-25T00:21:47.618Z,46.46
2022-10-25T00:24:16.248Z,46.45
2022-10-25T00:26:44.868Z,46.63
2022-10-25T00:29:13.550Z,46.45
2022-10-25T00:31:42.292Z,46.70
2022-10-25T00:34:10.772Z,46.74
2022-10-25T00:36:39.532Z,46.75
2022-10-25T00:39:09.391Z,47.04
2022-10-25T00:41:40.571Z,46.92
2022-10-25T00:44:47.200Z,46.82
2022-10-25T00:47:24.809Z,47.27
2022-10-25T00:50:00.254Z,47.20
2022-10-25T00:52:32.768Z,47.50
2022-10-25T00:55:04.550Z,47.23
2022-10-25T00:57:37.747Z,47.77
2022-10-25T01:00:08.380Z,47.60
2022-10-25T01:02:37.303Z,47.58
2022-10-25T01:05:06.398Z,47.62
2022-10-25T01:07:35.084Z,47.92
2022-10-25T01:10:05.564Z,48.31
2022-10-25T01:12:35.081Z,48.40
2022-10-25T01:15:05.685Z,48.47
2022-10-25T01:17:43.016Z,49.00
2022-10-25T01:20:38.455Z,48.93
2022-10-25T01:23:25.502Z,49.12
2022-10-25T01:26:12.328Z,49.13
2022-10-25T01:28:57.517Z,49.68
2022-10-25T01:31:36.889Z,50.11
2022-10-25T01:34:12.583Z,50.62
2022-10-25T01:36:47.562Z,50.68
2022-10-25T01:42:02.316Z,51.00
2022-10-25T01:44:40.731Z,51.08
2022-10-25T01:47:16.862Z,51.57
2022-10-25T01:49:49.772Z,51.85
2022-10-25T01:52:21.362Z,52.02
2022-10-25T01:54:51.766Z,52.13
2022-10-25T01:57:45.712Z,51.65
2022-10-25T02:00:18.368Z,52.74
2022-10-25T02:03:02.151Z,52.58
2022-10-25T02:05:39.789Z,52.64
2022-10-25T02:08:19.288Z,52.83
2022-10-25T02:10:56.285Z,52.70
2022-10-25T02:13:31.527Z,53.14
2022-10-25T02:16:06.349Z,53.22
2022-10-25T02:18:40.726Z,53.50
2022-10-25T02:21:13.765Z,53.44
2022-10-25T02:23:43.150Z,53.41
2022-10-25T02:26:12.772Z,53.71
2022-10-25T02:28:43.092Z,53.50
2022-10-25T02:31:16.490Z,54.23
2022-10-25T02:33:47.061Z,54.13
2022-10-25T02:36:17.609Z,54.02
2022-10-25T02:38:46.625Z,54.77
2022-10-25T02:41:15.663Z,54.17
2022-10-25T02:43:44.193Z,54.04
2022-10-25T02:46:15.047Z,54.59
2022-10-25T02:48:44.078Z,54.51
2022-10-25T02:51:15.274Z,54.52
2022-10-25T02:53:44.224Z,54.59
2022-10-25T02:56:16.458Z,54.88
2022-10-25T02:58:46.328Z,54.82
2022-10-25T03:01:16.276Z,54.54
2022-10-25T03:03:45.199Z,54.81
2022-10-25T03:06:15.987Z,54.77
2022-10-25T03:08:46.308Z,54.41
2022-10-25T03:11:16.091Z,54.36
2022-10-25T03:13:44.656Z,54.48
2022-10-25T03:16:13.296Z,54.28
2022-10-25T03:18:41.729Z,54.09
2022-10-25T03:21:10.797Z,54.04
2022-10-25T03:23:40.595Z,53.89
2022-10-25T03:26:09.192Z,53.82
2022-10-25T03:28:37.637Z,53.85
2022-10-25T03:31:12.642Z,53.80
2022-10-25T03:33:41.481Z,53.75
2022-10-25T03:36:10.755Z,53.71
2022-10-25T03:38:40.474Z,53.91
2022-10-25T03:41:09.150Z,53.98
2022-10-25T03:43:37.633Z,53.81
2022-10-25T03:46:06.648Z,53.85
2022-10-25T03:48:35.318Z,54.03
2022-10-25T03:51:04.057Z,54.34
2022-10-25T03:53:32.494Z,54.06
2022-10-25T03:56:02.499Z,54.13
2022-10-25T03:58:31.068Z,54.03
2022-10-25T04:01:01.008Z,54.05
2022-10-25T04:03:29.667Z,54.07
2022-10-25T04:05:58.428Z,53.80
2022-10-25T04:08:26.760Z,54.14
2022-10-25T04:10:55.688Z,54.27
2022-10-25T04:13:25.596Z,54.30
2022-10-25T04:15:54.252Z,54.34
2022-10-25T04:18:22.835Z,54.44
2022-10-25T04:20:51.729Z,55.01
2022-10-25T04:23:20.032Z,55.14
2022-10-25T04:25:49.013Z,54.91
2022-10-25T04:28:17.845Z,55.17
2022-10-25T04:30:47.977Z,55.68
2022-10-25T04:33:16.516Z,55.21
2022-10-25T04:35:45.355Z,55.24
2022-10-25T04:38:13.684Z,55.51
2022-10-25T04:40:42.321Z,55.62
2022-10-25T04:43:10.766Z,56.04
2022-10-25T04:45:39.400Z,56.32
2022-10-25T04:48:09.193Z,56.54
2022-10-25T04:50:38.935Z,56.66
2022-10-25T04:53:07.726Z,56.67
2022-10-25T04:55:36.844Z,56.67
2022-10-25T04:58:05.632Z,56.95
2022-10-25T05:00:34.316Z,57.14
2022-10-25T05:03:02.840Z,57.05
2022-10-25T05:05:32.855Z,56.98
2022-10-25T05:08:01.273Z,56.88
2022-10-25T05:10:29.928Z,56.87
2022-10-25T05:12:58.393Z,57.35
2022-10-25T05:15:27.108Z,57.95
2022-10-25T05:17:58.161Z,58.27
2022-10-25T05:20:27.318Z,58.24
2022-10-25T05:22:57.134Z,58.37
2022-10-25T05:25:25.850Z,58.05
2022-10-25T05:27:54.579Z,58.00
2022-10-25T05:30:23.254Z,58.28
2022-10-25T05:32:52.477Z,58.07
2022-10-25T05:35:22.049Z,58.29
2022-10-25T05:37:50.501Z,58.25
2022-10-25T05:40:20.653Z,58.66
2022-10-25T05:42:49.386Z,61.21
2022-10-25T05:45:18.298Z,65.52
2022-10-25T05:47:46.862Z,63.83
2022-10-25T05:50:15.646Z,62.24
2022-10-25T05:52:44.569Z,65.41
2022-10-25T05:55:13.451Z,68.68
2022-10-25T05:57:43.350Z,70.32
2022-10-25T06:00:13.377Z,71.70
2022-10-25T06:02:41.872Z,72.56
2022-10-25T06:05:10.813Z,72.16
2022-10-25T06:07:39.723Z,72.60
2022-10-25T06:10:10.717Z,72.38
2022-10-25T06:12:39.606Z,73.09
2022-10-25T06:15:11.747Z,72.68
2022-10-25T06:17:40.375Z,71.82
2022-10-25T06:20:10.818Z,72.42
2022-10-25T06:22:39.372Z,72.49
2022-10-25T06:25:09.157Z,72.24
2022-10-25T06:27:37.765Z,71.47
2022-10-25T06:30:07.780Z,71.83
2022-10-25T06:32:38.205Z,71.59
2022-10-25T06:35:08.250Z,71.34
2022-10-25T06:37:36.747Z,71.28
2022-10-25T06:40:06.615Z,69.07
2022-10-25T06:42:35.067Z,69.34
2022-10-25T06:45:03.812Z,69.75
2022-10-25T06:47:32.280Z,68.99
2022-10-25T06:50:02.406Z,69.86
2022-10-25T06:52:31.336Z,68.36
2022-10-25T06:54:59.963Z,66.92
2022-10-25T06:57:28.642Z,68.63
2022-10-25T06:59:57.327Z,68.13
2022-10-25T07:02:25.979Z,67.71
2022-10-25T07:04:54.783Z,66.87
2022-10-25T07:07:24.737Z,66.27
2022-10-25T07:09:53.438Z,68.37
2022-10-25T07:12:21.856Z,67.11
2022-10-25T07:14:50.850Z,65.57
2022-10-25T07:17:19.286Z,66.83
2022-10-25T07:19:48.047Z,67.00
2022-10-25T07:22:16.506Z,64.79
2022-10-25T07:24:46.508Z,64.29
2022-10-25T07:27:14.934Z,65.27
2022-10-25T07:29:44.439Z,66.18
2022-10-25T07:32:13.250Z,64.89
2022-10-25T07:34:41.866Z,66.08
2022-10-25T07:37:10.356Z,64.82
2022-10-25T07:39:39.354Z,64.75
2022-10-25T07:42:09.160Z,63.96
2022-10-25T07:44:37.984Z,64.46
2022-10-25T07:47:06.804Z,65.23
2022-10-25T07:49:36.664Z,65.16
2022-10-25T07:52:07.107Z,64.12
2022-10-25T07:54:35.968Z,64.34
2022-10-25T07:57:06.446Z,64.20
2022-10-25T07:59:36.465Z,64.51
2022-10-25T08:02:04.937Z,63.99
2022-10-25T08:04:33.986Z,63.67
2022-10-25T08:07:04.220Z,62.27
2022-10-25T08:09:38.333Z,61.16
2022-10-25T08:12:07.838Z,61.97
2022-10-25T08:14:41.392Z,62.30
2022-10-25T08:17:10.948Z,61.38
2022-10-25T08:19:39.811Z,60.68
2022-10-25T08:22:08.272Z,58.69
2022-10-25T08:24:38.757Z,57.46
2022-10-25T08:27:07.435Z,56.40
2022-10-25T08:29:37.517Z,55.46
2022-10-25T08:32:06.334Z,57.16
2022-10-25T08:34:35.049Z,55.72
2022-10-25T08:37:03.546Z,56.19
2022-10-25T08:39:32.258Z,56.43
2022-10-25T08:42:03.131Z,56.56
2022-10-25T08:44:44.418Z,56.37
2022-10-25T08:47:19.747Z,54.64
2022-10-25T08:49:56.809Z,56.62
2022-10-25T08:52:31.233Z,56.62
2022-10-25T08:55:05.693Z,55.39
2022-10-25T08:57:39.351Z,53.96
2022-10-25T09:00:17.507Z,54.58
2022-10-25T09:02:50.877Z,57.59
2022-10-25T09:05:37.581Z,56.64
2022-10-25T09:08:28.305Z,54.93
2022-10-25T09:11:07.656Z,54.96
2022-10-25T09:13:45.932Z,56.64
2022-10-25T09:16:18.284Z,57.09
2022-10-25T09:18:53.261Z,58.23
2022-10-25T09:21:29.176Z,57.93
2022-10-25T09:24:00.059Z,58.61
2022-10-25T09:26:42.096Z,58.88
2022-10-25T09:29:18.290Z,59.14
2022-10-25T09:31:52.515Z,59.48
2022-10-25T09:34:23.578Z,59.06
2022-10-25T09:36:56.343Z,57.88
2022-10-25T09:39:32.115Z,56.35
2022-10-25T09:42:03.845Z,55.72
2022-10-25T09:44:38.594Z,56.77
2022-10-25T09:47:20.812Z,58.06
2022-10-25T09:49:58.788Z,58.28
2022-10-25T09:52:35.971Z,58.45
2022-10-25T09:55:24.581Z,58.79
2022-10-25T09:57:53.234Z,58.47
2022-10-25T10:00:22.416Z,59.66
2022-10-25T10:02:52.661Z,59.31
2022-10-25T10:05:22.977Z,61.02
2022-10-25T10:07:52.576Z,59.49
2022-10-25T10:10:24.974Z,59.93
2022-10-25T10:15:38.684Z,60.06
2022-10-25T10:18:30.064Z,59.91
2022-10-25T10:21:06.795Z,59.37
2022-10-25T10:23:45.258Z,59.77
2022-10-25T10:26:19.976Z,60.25
2022-10-25T10:28:52.623Z,59.47
2022-10-25T10:31:21.267Z,58.62
2022-10-25T10:33:52.883Z,58.13
2022-10-25T10:36:24.173Z,56.89
2022-10-25T10:38:53.276Z,56.05
2022-10-25T10:41:27.880Z,55.26
2022-10-25T10:44:13.171Z,54.37
2022-10-25T10:46:47.035Z,54.20
2022-10-25T10:49:18.125Z,54.98
2022-10-25T10:51:47.412Z,55.72
2022-10-25T10:54:26.491Z,55.22
2022-10-25T10:57:00.623Z,55.09
2022-10-25T10:59:37.618Z,56.24
2022-10-25T11:02:22.997Z,54.54
2022-10-25T11:04:54.939Z,55.74
2022-10-25T11:07:32.887Z,54.52
2022-10-25T11:10:27.043Z,53.03
2022-10-25T11:13:15.704Z,53.89
2022-10-25T11:16:12.360Z,53.75
2022-10-25T11:18:51.226Z,54.03
2022-10-25T11:21:44.784Z,53.75
2022-10-25T11:24:28.138Z,54.52
2022-10-25T11:27:06.899Z,55.85
2022-10-25T11:29:51.488Z,56.77
2022-10-25T11:32:50.327Z,56.39
2022-10-25T11:35:44.913Z,55.70
2022-10-25T11:38:21.307Z,55.57
2022-10-25T11:41:02.989Z,56.45
2022-10-25T11:43:51.997Z,56.15
2022-10-25T11:46:31.745Z,56.50
2022-10-25T11:49:27.162Z,56.27
2022-10-25T11:54:54.250Z,53.76
2022-10-25T11:57:33.912Z,52.61
2022-10-25T12:00:06.863Z,54.29
2022-10-25T12:02:56.568Z,52.69
2022-10-25T12:05:35.094Z,50.80
2022-10-25T12:08:16.670Z,52.85
2022-10-25T12:10:51.196Z,52.85
2022-10-25T12:13:23.266Z,52.72
2022-10-25T12:15:55.328Z,53.56
2022-10-25T12:18:30.628Z,52.52
2022-10-25T12:21:00.375Z,50.89
2022-10-25T12:23:33.994Z,51.14
2022-10-25T12:26:11.567Z,50.05
2022-10-25T12:28:46.076Z,51.01
2022-10-25T12:31:41.768Z,51.67
2022-10-25T12:34:17.131Z,51.56
2022-10-25T12:36:48.816Z,50.23
2022-10-25T12:39:22.299Z,49.70
2022-10-25T12:41:56.752Z,48.81
2022-10-25T12:44:44.579Z,48.63
2022-10-25T12:47:33.659Z,49.56
2022-10-25T12:50:28.743Z,49.77
2022-10-25T12:53:21.055Z,48.63
2022-10-25T12:56:03.325Z,48.34
2022-10-25T12:58:54.464Z,48.10
2022-10-25T13:01:48.303Z,46.60
2022-10-25T13:04:58.305Z,46.25
2022-10-25T13:07:27.617Z,45.74
2022-10-25T13:10:05.877Z,46.33
2022-10-25T13:12:34.771Z,45.92
2022-10-25T13:15:05.389Z,46.06
2022-10-25T13:18:06.054Z,46.10
2022-10-25T13:20:49.284Z,45.32
2022-10-25T13:24:02.789Z,44.83
2022-10-25T13:26:34.637Z,45.51
2022-10-25T13:29:24.592Z,45.29
2022-10-25T13:32:10.345Z,45.38
2022-10-25T13:34:41.136Z,44.99
2022-10-25T13:37:44.557Z,45.58
2022-10-25T13:40:23.381Z,47.99
2022-10-25T13:43:01.549Z,50.05
2022-10-25T13:45:36.833Z,50.00
2022-10-25T13:48:19.088Z,50.91
2022-10-25T13:50:54.589Z,50.39
2022-10-25T13:53:27.142Z,50.46
2022-10-25T13:56:00.490Z,49.87
2022-10-25T13:58:49.400Z,49.03
2022-10-25T14:01:57.512Z,47.93
2022-10-25T14:04:40.959Z,47.11
2022-10-25T14:07:48.556Z,46.24
2022-10-25T14:10:29.279Z,46.17
2022-10-25T14:13:15.940Z,46.09
2022-10-25T14:15:55.761Z,45.83
2022-10-25T14:18:26.421Z,46.00
2022-10-25T14:21:05.360Z,45.55
2022-10-25T14:23:35.932Z,45.12
2022-10-25T14:26:13.914Z,45.05
2022-10-25T14:28:43.092Z,43.79
2022-10-25T14:31:15.198Z,42.98
2022-10-25T14:33:47.898Z,42.79
2022-10-25T14:36:28.270Z,43.02
2022-10-25T14:38:58.292Z,43.10
2022-10-25T14:41:29.230Z,43.00
2022-10-25T14:43:58.655Z,43.18
2022-10-25T14:46:30.186Z,43.18
2022-10-25T14:49:00.023Z,43.58
2022-10-25T14:51:33.162Z,43.68
2022-10-25T14:54:05.027Z,43.88
2022-10-25T14:56:36.177Z,43.80
2022-10-25T14:59:07.647Z,43.41
2022-10-25T15:01:53.924Z,43.26
2022-10-25T15:04:29.017Z,43.58
2022-10-25T15:06:59.698Z,43.44
2022-10-25T15:09:43.613Z,44.23
2022-10-25T15:12:21.132Z,44.44
2022-10-25T15:14:49.586Z,44.74
2022-10-25T15:17:24.965Z,44.28
2022-10-25T15:20:01.778Z,44.85
2022-10-25T15:22:34.309Z,46.02
2022-10-25T15:25:03.117Z,46.30
2022-10-25T15:27:40.408Z,47.07
2022-10-25T15:30:36.935Z,47.43
2022-10-25T15:33:10.628Z,47.75
2022-10-25T15:35:48.342Z,47.82
2022-10-25T15:38:19.180Z,47.65
2022-10-25T15:40:48.535Z,47.59
2022-10-25T15:43:17.308Z,47.86
2022-10-25T15:45:46.302Z,47.80
2022-10-25T15:48:18.412Z,48.07
2022-10-25T15:50:50.161Z,48.15
2022-10-25T15:53:20.998Z,48.70
2022-10-25T15:55:56.633Z,48.62
2022-10-25T15:58:27.147Z,49.99
2022-10-25T16:00:56.736Z,49.95
2022-10-25T16:03:26.261Z,49.40
2022-10-25T16:05:54.778Z,49.11
2022-10-25T16:08:25.163Z,50.22
2022-10-25T16:10:54.500Z,49.27
2022-10-25T16:13:28.710Z,49.09
2022-10-25T16:15:57.501Z,49.03
2022-10-25T16:18:26.553Z,48.79
2022-10-25T16:20:58.116Z,49.41
2022-10-25T16:23:28.871Z,49.28
2022-10-25T16:25:57.576Z,49.08
2022-10-25T16:30:59.814Z,51.82
2022-10-25T16:33:28.634Z,53.49
2022-10-25T16:35:58.655Z,55.64
2022-10-25T16:38:28.799Z,56.59
2022-10-25T16:40:58.704Z,57.24
2022-10-25T16:43:27.641Z,56.95
2022-10-25T16:45:56.124Z,56.34
2022-10-25T16:48:25.645Z,56.69
2022-10-25T16:50:54.045Z,57.57
2022-10-25T16:53:22.759Z,58.69
2022-10-25T16:55:52.641Z,59.29
2022-10-25T16:58:21.430Z,59.99
2022-10-25T17:00:51.231Z,60.36
2022-10-25T17:03:20.109Z,60.66
2022-10-25T17:05:48.879Z,60.23
2022-10-25T17:08:17.543Z,59.15
2022-10-25T17:10:46.245Z,59.91
2022-10-25T17:13:16.722Z,60.25
2022-10-25T17:15:45.649Z,60.50
2022-10-25T17:18:19.320Z,60.67
2022-10-25T17:20:48.206Z,60.43
2022-10-25T17:23:17.354Z,61.09
2022-10-25T17:25:45.929Z,61.28
2022-10-25T17:28:16.111Z,61.63
2022-10-25T17:30:44.741Z,61.17
2022-10-25T17:33:13.501Z,60.88
2022-10-25T17:35:42.620Z,60.23
2022-10-25T17:38:11.490Z,59.12
2022-10-25T17:40:40.407Z,59.54
2022-10-25T17:43:09.701Z,58.72
2022-10-25T17:45:42.520Z,59.39
2022-10-25T17:48:11.560Z,58.08
2022-10-25T17:50:42.553Z,57.01
2022-10-25T17:53:11.675Z,58.05
2022-10-25T17:55:41.234Z,57.79
2022-10-25T17:58:10.286Z,57.79
2022-10-25T18:00:41.107Z,56.51
2022-10-25T18:03:10.064Z,56.14
2022-10-25T18:05:42.415Z,55.32
2022-10-25T18:08:11.525Z,54.39
2022-10-25T18:10:40.090Z,55.35
2022-10-25T18:13:09.635Z,55.08
2022-10-25T18:15:40.206Z,56.33
2022-10-25T18:18:10.565Z,56.78
2022-10-25T18:20:41.546Z,57.20
2022-10-25T18:23:13.501Z,57.27
2022-10-25T18:25:50.922Z,57.70
2022-10-25T18:28:19.721Z,58.12
2022-10-25T18:30:49.782Z,58.37
2022-10-25T18:33:23.610Z,58.41
2022-10-25T18:35:59.024Z,57.13
2022-10-25T18:38:28.533Z,56.57
2022-10-25T18:40:58.847Z,56.14
2022-10-25T18:43:28.018Z,56.21
2022-10-25T18:46:01.496Z,56.05
2022-10-25T18:48:30.660Z,55.34
2022-10-25T18:51:04.782Z,56.97
2022-10-25T18:53:35.404Z,58.11
2022-10-25T18:56:04.026Z,57.55
2022-10-25T18:58:32.779Z,58.21
2022-10-25T19:01:08.787Z,58.03
2022-10-25T19:03:38.183Z,57.65
2022-10-25T19:06:07.795Z,57.85
2022-10-25T19:08:37.695Z,58.15
2022-10-25T19:11:07.580Z,57.48
2022-10-25T19:13:36.471Z,56.90
2022-10-25T19:16:07.683Z,56.72
2022-10-25T19:18:37.681Z,56.06
2022-10-25T19:21:08.131Z,55.85
2022-10-25T19:23:37.653Z,56.10
2022-10-25T19:26:07.561Z,56.30
2022-10-25T19:28:36.604Z,55.81
2022-10-25T19:31:08.184Z,57.82
2022-10-25T19:33:37.067Z,58.36
2022-10-25T19:36:06.712Z,58.24
2022-10-25T19:38:36.308Z,58.71
2022-10-25T19:41:07.033Z,58.17
2022-10-25T19:43:36.227Z,57.26
2022-10-25T19:46:08.209Z,56.49
2022-10-25T19:48:37.044Z,56.04
2022-10-25T19:51:06.788Z,55.88
2022-10-25T19:53:39.240Z,56.68
2022-10-25T19:56:09.957Z,55.86
2022-10-25T19:58:38.804Z,56.01
2022-10-25T20:01:10.653Z,56.55
2022-10-25T20:03:41.041Z,56.68
2022-10-25T20:06:11.235Z,57.36
2022-10-25T20:08:41.421Z,57.24
2022-10-25T20:11:12.477Z,56.84
2022-10-25T20:13:41.539Z,56.27
2022-10-25T20:16:13.835Z,55.68
2022-10-25T20:18:43.991Z,55.19
2022-10-25T20:21:15.035Z,55.26
2022-10-25T20:23:49.252Z,55.25
2022-10-25T20:26:19.884Z,55.30
2022-10-25T20:28:49.763Z,55.42
2022-10-25T20:31:20.698Z,55.71
2022-10-25T20:33:50.134Z,55.61
2022-10-25T20:36:18.693Z,56.03
2022-10-25T20:38:47.917Z,56.16
2022-10-25T20:41:19.141Z,56.09
2022-10-25T20:43:49.539Z,55.77
2022-10-25T20:46:20.411Z,55.82
2022-10-25T20:48:49.366Z,56.06
2022-10-25T20:51:18.912Z,56.30
2022-10-25T20:53:48.789Z,56.10
2022-10-25T20:56:18.251Z,56.17
2022-10-25T20:58:47.650Z,56.03
2022-10-25T21:01:17.071Z,56.17
2022-10-25T21:03:47.458Z,56.13
2022-10-25T21:06:15.938Z,56.19
2022-10-25T21:08:45.121Z,56.11
2022-10-25T21:11:14.501Z,56.21
2022-10-25T21:13:44.352Z,55.99
2022-10-25T21:16:14.893Z,56.40
2022-10-25T21:18:44.932Z,56.57
2022-10-25T21:21:18.921Z,56.65
2022-10-25T21:23:49.313Z,57.66
2022-10-25T21:26:17.698Z,57.31
2022-10-25T21:28:46.399Z,56.95
2022-10-25T21:31:17.790Z,57.26
2022-10-25T21:33:49.976Z,56.80
2022-10-25T21:36:21.671Z,56.78
2022-10-25T21:38:50.727Z,56.69
2022-10-25T21:41:21.050Z,56.64
2022-10-25T21:43:50.967Z,57.02
2022-10-25T21:46:21.279Z,57.33
2022-10-25T21:48:51.124Z,57.15
2022-10-25T21:51:24.407Z,57.34
2022-10-25T21:53:54.809Z,57.16
2022-10-25T21:56:30.755Z,57.37
2022-10-25T21:59:01.437Z,57.44
2022-10-25T22:01:31.854Z,57.44
2022-10-25T22:04:01.082Z,57.56
2022-10-25T22:06:32.937Z,57.78
2022-10-25T22:09:01.538Z,58.00
2022-10-25T22:11:32.988Z,57.93
2022-10-25T22:14:02.895Z,57.97
2022-10-25T22:16:32.366Z,57.98
2022-10-25T22:19:03.049Z,57.77
2022-10-25T22:21:35.377Z,58.27
2022-10-25T22:24:05.397Z,58.22
2022-10-25T22:26:34.164Z,58.29
2022-10-25T22:29:02.950Z,58.51
2022-10-25T22:31:31.675Z,58.47
2022-10-25T22:34:02.543Z,58.44
2022-10-25T22:36:35.008Z,58.43
2022-10-25T22:39:04.316Z,58.36
2022-10-25T22:41:32.933Z,58.52
2022-10-25T22:44:01.712Z,58.53
2022-10-25T22:46:32.972Z,58.76
2022-10-25T22:49:06.295Z,58.71
2022-10-25T22:51:37.442Z,58.93
2022-10-25T22:54:06.775Z,58.77
2022-10-25T22:56:35.548Z,58.95
2022-10-25T22:59:06.251Z,59.00
2022-10-25T23:01:36.730Z,58.96
2022-10-25T23:04:07.906Z,58.77
2022-10-25T23:06:39.552Z,59.00
2022-10-25T23:09:10.615Z,58.80
2022-10-25T23:11:41.677Z,58.65
2022-10-25T23:14:14.887Z,58.43
2022-10-25T23:16:46.638Z,58.06
2022-10-25T23:19:15.467Z,58.57
2022-10-25T23:21:45.421Z,58.43
2022-10-25T23:24:14.300Z,58.35
2022-10-25T23:26:42.849Z,58.55
2022-10-25T23:29:13.392Z,58.50
2022-10-25T23:31:41.814Z,58.41
2022-10-25T23:34:11.598Z,58.77
2022-10-25T23:36:40.589Z,59.13
2022-10-25T23:39:11.053Z,59.14
2022-10-25T23:41:39.592Z,59.41
2022-10-25T23:44:08.244Z,59.29
2022-10-25T23:46:36.611Z,59.26
2022-10-25T23:49:05.314Z,59.39
2022-10-25T23:51:33.922Z,59.36
2022-10-25T23:54:02.559Z,59.19
2022-10-25T23:56:32.477Z,59.40
2022-10-25T23:59:01.214Z,59.20
